sensor_id;sensor_type;location;lat;lon;timestamp;temperature;humidity
78212;SHT31;67490;52.086;5.122;2023-03-22T00:01:26;12.32;71.10
78212;SHT31;67490;52.086;5.122;2023-03-22T00:04:16;12.50;70.76
78212;SHT31;67490;52.086;5.122;2023-03-22T00:07:01;12.32;71.14
78212;SHT31;67490;52.086;5.122;2023-03-22T00:09:46;12.60;70.51
78212;SHT31;67490;52.086;5.122;2023-03-22T00:12:31;12.73;69.57
78212;SHT31;67490;52.086;5.122;2023-03-22T00:15:15;12.76;69.68
78212;SHT31;67490;52.086;5.122;2023-03-22T00:18:00;12.68;70.01
78212;SHT31;67490;52.086;5.122;2023-03-22T00:20:51;12.79;69.65
78212;SHT31;67490;52.086;5.122;2023-03-22T00:23:36;12.77;69.44
78212;SHT31;67490;52.086;5.122;2023-03-22T00:26:21;12.56;70.33
78212;SHT31;67490;52.086;5.122;2023-03-22T00:29:05;12.70;69.62
78212;SHT31;67490;52.086;5.122;2023-03-22T00:31:50;12.53;69.99
78212;SHT31;67490;52.086;5.122;2023-03-22T00:34:37;12.44;70.59
78212;SHT31;67490;52.086;5.122;2023-03-22T00:37:24;12.61;69.94
78212;SHT31;67490;52.086;5.122;2023-03-22T00:40:12;12.64;69.56
78212;SHT31;67490;52.086;5.122;2023-03-22T00:42:57;12.71;68.92
78212;SHT31;67490;52.086;5.122;2023-03-22T00:45:42;12.46;69.98
78212;SHT31;67490;52.086;5.122;2023-03-22T00:48:26;12.59;69.48
78212;SHT31;67490;52.086;5.122;2023-03-22T00:51:11;12.56;69.60
78212;SHT31;67490;52.086;5.122;2023-03-22T00:53:58;12.47;69.52
78212;SHT31;67490;52.086;5.122;2023-03-22T00:56:42;12.51;69.60
78212;SHT31;67490;52.086;5.122;2023-03-22T00:59:28;12.60;69.31
78212;SHT31;67490;52.086;5.122;2023-03-22T01:02:14;12.68;69.11
78212;SHT31;67490;52.086;5.122;2023-03-22T01:04:58;12.59;69.24
78212;SHT31;67490;52.086;5.122;2023-03-22T01:07:43;12.51;69.27
78212;SHT31;67490;52.086;5.122;2023-03-22T01:10:29;12.59;69.08
78212;SHT31;67490;52.086;5.122;2023-03-22T01:13:14;12.68;68.94
78212;SHT31;67490;52.086;5.122;2023-03-22T01:15:58;12.59;68.95
78212;SHT31;67490;52.086;5.122;2023-03-22T01:18:43;12.57;69.16
78212;SHT31;67490;52.086;5.122;2023-03-22T01:21:27;12.63;68.39
78212;SHT31;67490;52.086;5.122;2023-03-22T01:24:12;12.67;68.63
78212;SHT31;67490;52.086;5.122;2023-03-22T01:26:58;12.67;68.50
78212;SHT31;67490;52.086;5.122;2023-03-22T01:29:42;12.59;68.63
78212;SHT31;67490;52.086;5.122;2023-03-22T01:32:27;12.47;69.00
78212;SHT31;67490;52.086;5.122;2023-03-22T01:35:11;12.46;69.01
78212;SHT31;67490;52.086;5.122;2023-03-22T01:37:55;12.42;69.03
78212;SHT31;67490;52.086;5.122;2023-03-22T01:40:40;12.37;69.02
78212;SHT31;67490;52.086;5.122;2023-03-22T01:43:25;12.50;68.70
78212;SHT31;67490;52.086;5.122;2023-03-22T01:46:09;12.57;68.90
78212;SHT31;67490;52.086;5.122;2023-03-22T01:48:54;12.56;68.42
78212;SHT31;67490;52.086;5.122;2023-03-22T01:51:41;12.59;68.63
78212;SHT31;67490;52.086;5.122;2023-03-22T01:54:31;12.60;68.73
78212;SHT31;67490;52.086;5.122;2023-03-22T01:57:17;12.60;68.89
78212;SHT31;67490;52.086;5.122;2023-03-22T02:00:05;12.70;68.67
78212;SHT31;67490;52.086;5.122;2023-03-22T02:02:54;12.67;68.76
78212;SHT31;67490;52.086;5.122;2023-03-22T02:05:39;12.81;68.54
78212;SHT31;67490;52.086;5.122;2023-03-22T02:08:24;12.84;68.78
78212;SHT31;67490;52.086;5.122;2023-03-22T02:11:13;12.88;68.91
78212;SHT31;67490;52.086;5.122;2023-03-22T02:14:23;12.76;69.43
78212;SHT31;67490;52.086;5.122;2023-03-22T02:17:29;12.79;69.79
78212;SHT31;67490;52.086;5.122;2023-03-22T02:20:44;12.90;69.32
78212;SHT31;67490;52.086;5.122;2023-03-22T02:27:21;12.83;69.72
78212;SHT31;67490;52.086;5.122;2023-03-22T02:30:24;12.70;70.54
78212;SHT31;67490;52.086;5.122;2023-03-22T02:33:44;12.84;70.04
78212;SHT31;67490;52.086;5.122;2023-03-22T02:36:59;12.77;70.75
78212;SHT31;67490;52.086;5.122;2023-03-22T02:39:51;12.88;70.54
78212;SHT31;67490;52.086;5.122;2023-03-22T02:42:46;12.91;70.52
78212;SHT31;67490;52.086;5.122;2023-03-22T02:45:43;12.85;70.85
78212;SHT31;67490;52.086;5.122;2023-03-22T02:48:34;12.80;71.29
78212;SHT31;67490;52.086;5.122;2023-03-22T02:51:24;12.81;71.40
78212;SHT31;67490;52.086;5.122;2023-03-22T02:54:16;12.57;72.79
78212;SHT31;67490;52.086;5.122;2023-03-22T02:57:10;12.68;72.53
78212;SHT31;67490;52.086;5.122;2023-03-22T03:00:00;12.83;72.25
78212;SHT31;67490;52.086;5.122;2023-03-22T03:02:48;12.74;72.83
78212;SHT31;67490;52.086;5.122;2023-03-22T03:05:34;12.70;73.12
78212;SHT31;67490;52.086;5.122;2023-03-22T03:08:21;12.79;73.11
78212;SHT31;67490;52.086;5.122;2023-03-22T03:11:08;12.74;73.31
78212;SHT31;67490;52.086;5.122;2023-03-22T03:13:54;12.85;73.33
78212;SHT31;67490;52.086;5.122;2023-03-22T03:16:39;12.90;73.04
78212;SHT31;67490;52.086;5.122;2023-03-22T03:19:30;12.90;73.18
78212;SHT31;67490;52.086;5.122;2023-03-22T03:22:29;12.85;73.26
78212;SHT31;67490;52.086;5.122;2023-03-22T03:25:26;12.88;73.26
78212;SHT31;67490;52.086;5.122;2023-03-22T03:28:20;12.80;73.35
78212;SHT31;67490;52.086;5.122;2023-03-22T03:31:24;12.88;73.28
78212;SHT31;67490;52.086;5.122;2023-03-22T03:34:18;12.87;73.19
78212;SHT31;67490;52.086;5.122;2023-03-22T03:37:08;12.76;73.66
78212;SHT31;67490;52.086;5.122;2023-03-22T03:39:59;12.71;73.83
78212;SHT31;67490;52.086;5.122;2023-03-22T03:42:48;12.81;73.84
78212;SHT31;67490;52.086;5.122;2023-03-22T03:45:35;12.84;73.61
78212;SHT31;67490;52.086;5.122;2023-03-22T03:48:25;12.95;73.27
78212;SHT31;67490;52.086;5.122;2023-03-22T03:51:10;12.84;73.59
78212;SHT31;67490;52.086;5.122;2023-03-22T03:53:55;12.91;73.77
78212;SHT31;67490;52.086;5.122;2023-03-22T03:56:40;13.04;72.81
78212;SHT31;67490;52.086;5.122;2023-03-22T03:59:24;12.91;73.17
78212;SHT31;67490;52.086;5.122;2023-03-22T04:02:08;12.87;73.28
78212;SHT31;67490;52.086;5.122;2023-03-22T04:04:54;12.91;73.43
78212;SHT31;67490;52.086;5.122;2023-03-22T04:07:39;12.77;73.89
78212;SHT31;67490;52.086;5.122;2023-03-22T04:10:23;12.77;73.80
78212;SHT31;67490;52.086;5.122;2023-03-22T04:13:08;12.81;73.55
78212;SHT31;67490;52.086;5.122;2023-03-22T04:15:53;12.65;74.27
78212;SHT31;67490;52.086;5.122;2023-03-22T04:18:38;12.83;73.55
78212;SHT31;67490;52.086;5.122;2023-03-22T04:21:24;12.95;73.31
78212;SHT31;67490;52.086;5.122;2023-03-22T04:24:08;13.07;72.94
78212;SHT31;67490;52.086;5.122;2023-03-22T04:26:53;12.88;73.00
78212;SHT31;67490;52.086;5.122;2023-03-22T04:29:37;12.83;73.60
78212;SHT31;67490;52.086;5.122;2023-03-22T04:32:22;12.77;73.42
78212;SHT31;67490;52.086;5.122;2023-03-22T04:35:07;12.84;73.27
78212;SHT31;67490;52.086;5.122;2023-03-22T04:37:53;12.85;73.37
78212;SHT31;67490;52.086;5.122;2023-03-22T04:40:37;12.92;73.04
78212;SHT31;67490;52.086;5.122;2023-03-22T04:43:21;12.91;72.70
78212;SHT31;67490;52.086;5.122;2023-03-22T04:46:07;12.87;72.93
78212;SHT31;67490;52.086;5.122;2023-03-22T04:48:56;12.79;73.23
78212;SHT31;67490;52.086;5.122;2023-03-22T04:51:40;12.81;72.99
78212;SHT31;67490;52.086;5.122;2023-03-22T04:54:27;12.90;73.17
78212;SHT31;67490;52.086;5.122;2023-03-22T04:57:11;12.87;73.00
78212;SHT31;67490;52.086;5.122;2023-03-22T04:59:56;12.79;72.98
78212;SHT31;67490;52.086;5.122;2023-03-22T05:02:40;12.80;73.08
78212;SHT31;67490;52.086;5.122;2023-03-22T05:05:25;12.88;72.65
78212;SHT31;67490;52.086;5.122;2023-03-22T05:08:09;12.74;73.20
78212;SHT31;67490;52.086;5.122;2023-03-22T05:11:05;12.71;73.24
78212;SHT31;67490;52.086;5.122;2023-03-22T05:13:50;12.65;73.36
78212;SHT31;67490;52.086;5.122;2023-03-22T05:16:34;12.57;73.57
78212;SHT31;67490;52.086;5.122;2023-03-22T05:19:19;12.60;73.70
78212;SHT31;67490;52.086;5.122;2023-03-22T05:22:05;12.60;73.53
78212;SHT31;67490;52.086;5.122;2023-03-22T05:24:49;12.56;73.70
78212;SHT31;67490;52.086;5.122;2023-03-22T05:27:35;12.73;73.21
78212;SHT31;67490;52.086;5.122;2023-03-22T05:30:21;12.64;72.98
78212;SHT31;67490;52.086;5.122;2023-03-22T05:33:07;12.59;73.03
78212;SHT31;67490;52.086;5.122;2023-03-22T05:35:51;12.59;73.18
78212;SHT31;67490;52.086;5.122;2023-03-22T05:38:36;12.60;73.14
78212;SHT31;67490;52.086;5.122;2023-03-22T05:41:21;12.63;73.15
78212;SHT31;67490;52.086;5.122;2023-03-22T05:44:06;12.59;72.96
78212;SHT31;67490;52.086;5.122;2023-03-22T05:46:52;12.49;73.18
78212;SHT31;67490;52.086;5.122;2023-03-22T05:49:36;12.54;73.12
78212;SHT31;67490;52.086;5.122;2023-03-22T05:52:21;12.54;73.13
78212;SHT31;67490;52.086;5.122;2023-03-22T05:55:06;12.67;72.60
78212;SHT31;67490;52.086;5.122;2023-03-22T05:57:50;12.63;72.70
78212;SHT31;67490;52.086;5.122;2023-03-22T06:00:38;12.71;72.65
78212;SHT31;67490;52.086;5.122;2023-03-22T06:03:23;12.79;72.32
78212;SHT31;67490;52.086;5.122;2023-03-22T06:06:08;12.74;71.92
78212;SHT31;67490;52.086;5.122;2023-03-22T06:08:57;12.60;72.43
78212;SHT31;67490;52.086;5.122;2023-03-22T06:11:41;12.65;72.76
78212;SHT31;67490;52.086;5.122;2023-03-22T06:14:26;12.81;71.65
78212;SHT31;67490;52.086;5.122;2023-03-22T06:17:12;12.84;71.49
78212;SHT31;67490;52.086;5.122;2023-03-22T06:19:56;12.77;71.61
78212;SHT31;67490;52.086;5.122;2023-03-22T06:22:41;12.73;71.70
78212;SHT31;67490;52.086;5.122;2023-03-22T06:25:25;12.91;71.15
78212;SHT31;67490;52.086;5.122;2023-03-22T06:28:10;12.77;71.57
78212;SHT31;67490;52.086;5.122;2023-03-22T06:30:55;12.61;71.66
78212;SHT31;67490;52.086;5.122;2023-03-22T06:33:41;12.80;71.44
78212;SHT31;67490;52.086;5.122;2023-03-22T06:36:26;12.81;71.29
78212;SHT31;67490;52.086;5.122;2023-03-22T06:39:10;12.71;71.32
78212;SHT31;67490;52.086;5.122;2023-03-22T06:41:55;12.79;71.27
78212;SHT31;67490;52.086;5.122;2023-03-22T06:44:39;12.87;70.64
78212;SHT31;67490;52.086;5.122;2023-03-22T06:47:26;12.77;70.90
78212;SHT31;67490;52.086;5.122;2023-03-22T06:50:12;12.85;70.70
78212;SHT31;67490;52.086;5.122;2023-03-22T06:52:59;12.80;70.94
78212;SHT31;67490;52.086;5.122;2023-03-22T06:55:43;12.95;70.34
78212;SHT31;67490;52.086;5.122;2023-03-22T06:58:28;12.91;70.35
78212;SHT31;67490;52.086;5.122;2023-03-22T07:01:12;12.90;70.54
78212;SHT31;67490;52.086;5.122;2023-03-22T07:03:57;12.88;70.35
78212;SHT31;67490;52.086;5.122;2023-03-22T07:06:43;12.94;70.11
78212;SHT31;67490;52.086;5.122;2023-03-22T07:09:28;12.88;70.36
78212;SHT31;67490;52.086;5.122;2023-03-22T07:12:12;12.87;69.89
78212;SHT31;67490;52.086;5.122;2023-03-22T07:14:56;12.84;70.29
78212;SHT31;67490;52.086;5.122;2023-03-22T07:17:40;12.77;70.30
78212;SHT31;67490;52.086;5.122;2023-03-22T07:20:25;12.98;69.70
78212;SHT31;67490;52.086;5.122;2023-03-22T07:23:10;12.74;70.38
78212;SHT31;67490;52.086;5.122;2023-03-22T07:25:55;12.80;71.22
78212;SHT31;67490;52.086;5.122;2023-03-22T07:28:40;12.85;70.34
78212;SHT31;67490;52.086;5.122;2023-03-22T07:31:27;12.87;69.91
78212;SHT31;67490;52.086;5.122;2023-03-22T07:34:12;12.90;69.95
78212;SHT31;67490;52.086;5.122;2023-03-22T07:36:57;13.07;69.59
78212;SHT31;67490;52.086;5.122;2023-03-22T07:39:43;13.23;68.85
78212;SHT31;67490;52.086;5.122;2023-03-22T07:42:28;13.28;68.77
78212;SHT31;67490;52.086;5.122;2023-03-22T07:45:12;13.21;69.23
78212;SHT31;67490;52.086;5.122;2023-03-22T07:47:57;13.15;69.17
78212;SHT31;67490;52.086;5.122;2023-03-22T07:50:42;13.34;68.79
78212;SHT31;67490;52.086;5.122;2023-03-22T07:53:26;13.22;69.09
78212;SHT31;67490;52.086;5.122;2023-03-22T07:56:12;13.31;68.73
78212;SHT31;67490;52.086;5.122;2023-03-22T07:58:56;13.38;68.14
78212;SHT31;67490;52.086;5.122;2023-03-22T08:01:41;13.15;68.94
78212;SHT31;67490;52.086;5.122;2023-03-22T08:04:26;13.32;68.69
78212;SHT31;67490;52.086;5.122;2023-03-22T08:07:10;13.23;68.44
78212;SHT31;67490;52.086;5.122;2023-03-22T08:09:55;13.40;68.01
78212;SHT31;67490;52.086;5.122;2023-03-22T08:12:41;13.53;67.53
78212;SHT31;67490;52.086;5.122;2023-03-22T08:15:25;13.71;67.58
78212;SHT31;67490;52.086;5.122;2023-03-22T08:18:10;13.55;67.63
78212;SHT31;67490;52.086;5.122;2023-03-22T08:20:56;13.36;68.71
78212;SHT31;67490;52.086;5.122;2023-03-22T08:23:41;13.39;68.83
78212;SHT31;67490;52.086;5.122;2023-03-22T08:26:25;13.19;69.18
78212;SHT31;67490;52.086;5.122;2023-03-22T08:29:12;13.25;69.33
78212;SHT31;67490;52.086;5.122;2023-03-22T08:31:56;13.19;69.68
78212;SHT31;67490;52.086;5.122;2023-03-22T08:34:45;13.42;68.63
78212;SHT31;67490;52.086;5.122;2023-03-22T08:37:30;13.49;68.73
78212;SHT31;67490;52.086;5.122;2023-03-22T08:40:14;13.31;68.97
78212;SHT31;67490;52.086;5.122;2023-03-22T08:42:58;13.32;68.98
78212;SHT31;67490;52.086;5.122;2023-03-22T08:45:44;13.38;68.53
78212;SHT31;67490;52.086;5.122;2023-03-22T08:48:30;13.08;68.93
78212;SHT31;67490;52.086;5.122;2023-03-22T08:51:15;13.23;68.89
78212;SHT31;67490;52.086;5.122;2023-03-22T08:54:00;13.11;69.28
78212;SHT31;67490;52.086;5.122;2023-03-22T08:56:47;13.11;69.56
78212;SHT31;67490;52.086;5.122;2023-03-22T08:59:31;13.05;69.36
78212;SHT31;67490;52.086;5.122;2023-03-22T09:02:17;13.04;69.61
78212;SHT31;67490;52.086;5.122;2023-03-22T09:05:02;13.15;69.48
78212;SHT31;67490;52.086;5.122;2023-03-22T09:07:50;13.19;70.07
78212;SHT31;67490;52.086;5.122;2023-03-22T09:10:37;13.01;71.28
78212;SHT31;67490;52.086;5.122;2023-03-22T09:13:22;12.94;71.84
78212;SHT31;67490;52.086;5.122;2023-03-22T09:16:07;13.08;71.37
78212;SHT31;67490;52.086;5.122;2023-03-22T09:18:53;13.09;72.03
78212;SHT31;67490;52.086;5.122;2023-03-22T09:21:38;12.73;73.69
78212;SHT31;67490;52.086;5.122;2023-03-22T09:24:22;12.83;73.88
78212;SHT31;67490;52.086;5.122;2023-03-22T09:27:07;12.73;74.64
78212;SHT31;67490;52.086;5.122;2023-03-22T09:29:51;12.67;75.04
78212;SHT31;67490;52.086;5.122;2023-03-22T09:32:36;12.85;74.39
78212;SHT31;67490;52.086;5.122;2023-03-22T09:35:22;12.70;74.91
78212;SHT31;67490;52.086;5.122;2023-03-22T09:38:06;12.65;74.75
78212;SHT31;67490;52.086;5.122;2023-03-22T09:40:54;12.79;74.98
78212;SHT31;67490;52.086;5.122;2023-03-22T09:43:49;12.77;74.48
78212;SHT31;67490;52.086;5.122;2023-03-22T09:46:37;12.60;74.65
78212;SHT31;67490;52.086;5.122;2023-03-22T09:49:28;12.65;73.90
78212;SHT31;67490;52.086;5.122;2023-03-22T09:52:16;12.60;74.72
78212;SHT31;67490;52.086;5.122;2023-03-22T09:55:01;12.67;75.00
78212;SHT31;67490;52.086;5.122;2023-03-22T09:57:54;12.49;75.65
78212;SHT31;67490;52.086;5.122;2023-03-22T10:00:46;12.57;76.12
78212;SHT31;67490;52.086;5.122;2023-03-22T10:04:00;12.64;75.34
78212;SHT31;67490;52.086;5.122;2023-03-22T10:06:49;12.83;75.64
78212;SHT31;67490;52.086;5.122;2023-03-22T10:09:48;12.76;75.84
78212;SHT31;67490;52.086;5.122;2023-03-22T10:12:45;12.61;76.24
78212;SHT31;67490;52.086;5.122;2023-03-22T10:15:36;12.77;75.81
78212;SHT31;67490;52.086;5.122;2023-03-22T10:18:24;12.43;77.76
78212;SHT31;67490;52.086;5.122;2023-03-22T10:21:11;12.59;77.77
78212;SHT31;67490;52.086;5.122;2023-03-22T10:24:02;12.64;78.05
78212;SHT31;67490;52.086;5.122;2023-03-22T10:26:50;12.39;77.07
78212;SHT31;67490;52.086;5.122;2023-03-22T10:29:38;12.77;77.20
78212;SHT31;67490;52.086;5.122;2023-03-22T10:32:30;12.64;77.56
78212;SHT31;67490;52.086;5.122;2023-03-22T10:35:17;12.47;78.66
78212;SHT31;67490;52.086;5.122;2023-03-22T10:38:17;12.64;77.80
78212;SHT31;67490;52.086;5.122;2023-03-22T10:41:02;12.79;76.74
78212;SHT31;67490;52.086;5.122;2023-03-22T10:43:52;12.71;78.44
78212;SHT31;67490;52.086;5.122;2023-03-22T10:46:39;12.77;77.03
78212;SHT31;67490;52.086;5.122;2023-03-22T10:49:32;13.00;77.45
78212;SHT31;67490;52.086;5.122;2023-03-22T10:52:32;12.88;75.68
78212;SHT31;67490;52.086;5.122;2023-03-22T10:55:18;12.81;76.81
78212;SHT31;67490;52.086;5.122;2023-03-22T10:58:12;12.95;76.55
78212;SHT31;67490;52.086;5.122;2023-03-22T11:01:03;12.79;77.33
78212;SHT31;67490;52.086;5.122;2023-03-22T11:03:50;12.87;76.97
78212;SHT31;67490;52.086;5.122;2023-03-22T11:06:38;12.84;77.32
78212;SHT31;67490;52.086;5.122;2023-03-22T11:09:23;12.95;75.86
78212;SHT31;67490;52.086;5.122;2023-03-22T11:12:12;13.00;76.12
78212;SHT31;67490;52.086;5.122;2023-03-22T11:14:56;13.00;76.15
78212;SHT31;67490;52.086;5.122;2023-03-22T11:17:42;13.00;76.39
78212;SHT31;67490;52.086;5.122;2023-03-22T11:20:28;13.04;75.29
78212;SHT31;67490;52.086;5.122;2023-03-22T11:23:14;13.08;75.02
78212;SHT31;67490;52.086;5.122;2023-03-22T11:26:07;12.90;75.69
78212;SHT31;67490;52.086;5.122;2023-03-22T11:29:02;13.28;75.22
78212;SHT31;67490;52.086;5.122;2023-03-22T11:31:54;13.09;75.37
78212;SHT31;67490;52.086;5.122;2023-03-22T11:34:44;13.07;74.67
78212;SHT31;67490;52.086;5.122;2023-03-22T11:37:29;12.97;75.16
78212;SHT31;67490;52.086;5.122;2023-03-22T11:40:16;13.02;74.08
78212;SHT31;67490;52.086;5.122;2023-03-22T11:43:14;13.21;74.51
78212;SHT31;67490;52.086;5.122;2023-03-22T11:46:00;13.05;74.59
78212;SHT31;67490;52.086;5.122;2023-03-22T11:48:47;13.05;74.65
78212;SHT31;67490;52.086;5.122;2023-03-22T11:51:37;13.08;74.69
78212;SHT31;67490;52.086;5.122;2023-03-22T11:54:28;13.07;75.20
78212;SHT31;67490;52.086;5.122;2023-03-22T11:57:16;13.22;74.27
78212;SHT31;67490;52.086;5.122;2023-03-22T12:00:06;13.32;73.80
78212;SHT31;67490;52.086;5.122;2023-03-22T12:02:59;13.34;73.25
78212;SHT31;67490;52.086;5.122;2023-03-22T12:05:48;13.36;73.23
78212;SHT31;67490;52.086;5.122;2023-03-22T12:08:40;13.39;73.22
78212;SHT31;67490;52.086;5.122;2023-03-22T12:11:35;13.19;73.73
78212;SHT31;67490;52.086;5.122;2023-03-22T12:14:24;13.23;74.72
78212;SHT31;67490;52.086;5.122;2023-03-22T12:17:14;13.07;74.49
78212;SHT31;67490;52.086;5.122;2023-03-22T12:20:15;13.28;73.82
78212;SHT31;67490;52.086;5.122;2023-03-22T12:23:01;13.19;73.78
78212;SHT31;67490;52.086;5.122;2023-03-22T12:25:52;13.35;73.38
78212;SHT31;67490;52.086;5.122;2023-03-22T12:28:42;13.45;73.12
78212;SHT31;67490;52.086;5.122;2023-03-22T12:31:34;13.28;73.93
78212;SHT31;67490;52.086;5.122;2023-03-22T12:34:27;13.31;73.69
78212;SHT31;67490;52.086;5.122;2023-03-22T12:37:20;13.38;73.27
78212;SHT31;67490;52.086;5.122;2023-03-22T12:40:17;13.39;73.03
78212;SHT31;67490;52.086;5.122;2023-03-22T12:43:12;13.53;72.68
78212;SHT31;67490;52.086;5.122;2023-03-22T12:46:02;13.65;72.75
78212;SHT31;67490;52.086;5.122;2023-03-22T12:48:53;13.67;72.54
78212;SHT31;67490;52.086;5.122;2023-03-22T12:51:40;13.63;72.89
78212;SHT31;67490;52.086;5.122;2023-03-22T12:54:26;13.15;74.89
78212;SHT31;67490;52.086;5.122;2023-03-22T12:57:13;13.40;74.29
78212;SHT31;67490;52.086;5.122;2023-03-22T13:00:06;13.66;73.56
78212;SHT31;67490;52.086;5.122;2023-03-22T13:03:00;13.58;73.30
78212;SHT31;67490;52.086;5.122;2023-03-22T13:05:48;13.35;73.90
78212;SHT31;67490;52.086;5.122;2023-03-22T13:09:02;13.40;73.97
78212;SHT31;67490;52.086;5.122;2023-03-22T13:12:28;13.71;72.84
78212;SHT31;67490;52.086;5.122;2023-03-22T13:15:29;13.76;72.61
78212;SHT31;67490;52.086;5.122;2023-03-22T13:18:37;13.80;72.60
78212;SHT31;67490;52.086;5.122;2023-03-22T13:21:24;13.39;73.60
78212;SHT31;67490;52.086;5.122;2023-03-22T13:24:27;13.28;74.13
78212;SHT31;67490;52.086;5.122;2023-03-22T13:27:15;13.58;73.51
78212;SHT31;67490;52.086;5.122;2023-03-22T13:30:00;13.69;72.76
78212;SHT31;67490;52.086;5.122;2023-03-22T13:32:49;13.87;72.68
78212;SHT31;67490;52.086;5.122;2023-03-22T13:35:42;13.94;72.13
78212;SHT31;67490;52.086;5.122;2023-03-22T13:38:31;13.89;72.52
78212;SHT31;67490;52.086;5.122;2023-03-22T13:41:25;13.79;72.64
78212;SHT31;67490;52.086;5.122;2023-03-22T13:44:28;13.79;73.10
78212;SHT31;67490;52.086;5.122;2023-03-22T13:47:34;13.81;72.79
78212;SHT31;67490;52.086;5.122;2023-03-22T13:50:26;13.93;72.82
78212;SHT31;67490;52.086;5.122;2023-03-22T13:53:17;13.74;73.33
78212;SHT31;67490;52.086;5.122;2023-03-22T13:56:05;13.93;72.96
78212;SHT31;67490;52.086;5.122;2023-03-22T13:58:52;13.86;73.21
78212;SHT31;67490;52.086;5.122;2023-03-22T14:01:41;13.97;72.60
78212;SHT31;67490;52.086;5.122;2023-03-22T14:04:38;13.86;73.10
78212;SHT31;67490;52.086;5.122;2023-03-22T14:07:30;14.03;72.53
78212;SHT31;67490;52.086;5.122;2023-03-22T14:10:20;14.04;72.60
78212;SHT31;67490;52.086;5.122;2023-03-22T14:13:15;14.14;72.32
78212;SHT31;67490;52.086;5.122;2023-03-22T14:16:10;14.07;73.07
78212;SHT31;67490;52.086;5.122;2023-03-22T14:18:57;14.22;72.63
78212;SHT31;67490;52.086;5.122;2023-03-22T14:21:48;14.22;72.68
78212;SHT31;67490;52.086;5.122;2023-03-22T14:24:35;13.97;73.59
78212;SHT31;67490;52.086;5.122;2023-03-22T14:27:19;13.93;73.85
78212;SHT31;67490;52.086;5.122;2023-03-22T14:30:05;14.17;73.07
78212;SHT31;67490;52.086;5.122;2023-03-22T14:32:50;14.07;73.34
78212;SHT31;67490;52.086;5.122;2023-03-22T14:35:37;13.89;73.98
78212;SHT31;67490;52.086;5.122;2023-03-22T14:38:31;13.98;73.73
78212;SHT31;67490;52.086;5.122;2023-03-22T14:41:18;14.13;73.06
78212;SHT31;67490;52.086;5.122;2023-03-22T14:44:03;14.22;72.92
78212;SHT31;67490;52.086;5.122;2023-03-22T14:46:48;13.84;74.19
78212;SHT31;67490;52.086;5.122;2023-03-22T14:49:38;14.00;73.64
78212;SHT31;67490;52.086;5.122;2023-03-22T14:52:27;13.98;73.94
78212;SHT31;67490;52.086;5.122;2023-03-22T14:55:19;14.08;73.74
78212;SHT31;67490;52.086;5.122;2023-03-22T14:58:07;14.03;74.46
78212;SHT31;67490;52.086;5.122;2023-03-22T15:00:53;14.06;75.13
78212;SHT31;67490;52.086;5.122;2023-03-22T15:03:39;14.13;74.79
78212;SHT31;67490;52.086;5.122;2023-03-22T15:06:25;13.98;75.49
78212;SHT31;67490;52.086;5.122;2023-03-22T15:09:12;13.89;75.94
78212;SHT31;67490;52.086;5.122;2023-03-22T15:12:01;13.89;76.30
78212;SHT31;67490;52.086;5.122;2023-03-22T15:14:48;13.96;76.03
78212;SHT31;67490;52.086;5.122;2023-03-22T15:17:33;13.97;75.94
78212;SHT31;67490;52.086;5.122;2023-03-22T15:20:25;14.06;76.05
78212;SHT31;67490;52.086;5.122;2023-03-22T15:23:15;14.06;76.22
78212;SHT31;67490;52.086;5.122;2023-03-22T15:26:06;13.93;76.57
78212;SHT31;67490;52.086;5.122;2023-03-22T15:28:57;13.86;77.62
78212;SHT31;67490;52.086;5.122;2023-03-22T15:31:45;13.80;77.76
78212;SHT31;67490;52.086;5.122;2023-03-22T15:34:31;14.00;77.29
78212;SHT31;67490;52.086;5.122;2023-03-22T15:37:24;13.89;77.84
78212;SHT31;67490;52.086;5.122;2023-03-22T15:40:28;13.91;77.94
78212;SHT31;67490;52.086;5.122;2023-03-22T15:43:19;14.01;77.88
78212;SHT31;67490;52.086;5.122;2023-03-22T15:46:18;13.91;78.07
78212;SHT31;67490;52.086;5.122;2023-03-22T15:49:17;13.81;78.45
78212;SHT31;67490;52.086;5.122;2023-03-22T15:52:13;13.81;78.61
78212;SHT31;67490;52.086;5.122;2023-03-22T15:55:05;13.89;78.47
78212;SHT31;67490;52.086;5.122;2023-03-22T15:57:56;13.83;78.48
78212;SHT31;67490;52.086;5.122;2023-03-22T16:00:40;13.71;79.22
78212;SHT31;67490;52.086;5.122;2023-03-22T16:03:38;13.53;80.06
78212;SHT31;67490;52.086;5.122;2023-03-22T16:06:27;13.76;79.36
78212;SHT31;67490;52.086;5.122;2023-03-22T16:09:12;13.65;79.93
78212;SHT31;67490;52.086;5.122;2023-03-22T16:11:56;13.52;80.39
78212;SHT31;67490;52.086;5.122;2023-03-22T16:14:41;13.66;80.45
78212;SHT31;67490;52.086;5.122;2023-03-22T16:17:26;13.67;79.97
78212;SHT31;67490;52.086;5.122;2023-03-22T16:20:13;13.48;80.69
78212;SHT31;67490;52.086;5.122;2023-03-22T16:22:59;13.50;80.55
78212;SHT31;67490;52.086;5.122;2023-03-22T16:25:46;13.45;81.01
78212;SHT31;67490;52.086;5.122;2023-03-22T16:28:31;13.50;80.51
78212;SHT31;67490;52.086;5.122;2023-03-22T16:31:18;13.48;81.30
78212;SHT31;67490;52.086;5.122;2023-03-22T16:34:03;13.49;80.89
78212;SHT31;67490;52.086;5.122;2023-03-22T16:36:49;13.43;81.22
78212;SHT31;67490;52.086;5.122;2023-03-22T16:39:33;13.67;80.57
78212;SHT31;67490;52.086;5.122;2023-03-22T16:42:24;13.46;80.99
78212;SHT31;67490;52.086;5.122;2023-03-22T16:45:13;13.35;81.13
78212;SHT31;67490;52.086;5.122;2023-03-22T16:47:59;13.48;81.01
78212;SHT31;67490;52.086;5.122;2023-03-22T16:50:45;13.43;81.14
78212;SHT31;67490;52.086;5.122;2023-03-22T16:53:32;13.56;80.67
78212;SHT31;67490;52.086;5.122;2023-03-22T16:56:19;13.59;80.30
78212;SHT31;67490;52.086;5.122;2023-03-22T16:59:04;13.43;80.66
78212;SHT31;67490;52.086;5.122;2023-03-22T17:01:49;13.36;81.01
78212;SHT31;67490;52.086;5.122;2023-03-22T17:04:33;13.43;80.95
78212;SHT31;67490;52.086;5.122;2023-03-22T17:07:22;13.42;80.92
78212;SHT31;67490;52.086;5.122;2023-03-22T17:10:10;13.39;80.89
78212;SHT31;67490;52.086;5.122;2023-03-22T17:12:55;13.36;81.16
78212;SHT31;67490;52.086;5.122;2023-03-22T17:15:42;13.49;80.77
78212;SHT31;67490;52.086;5.122;2023-03-22T17:18:26;13.35;81.04
78212;SHT31;67490;52.086;5.122;2023-03-22T17:21:12;13.42;81.08
78212;SHT31;67490;52.086;5.122;2023-03-22T17:23:57;13.48;80.64
78212;SHT31;67490;52.086;5.122;2023-03-22T17:26:43;13.45;80.52
78212;SHT31;67490;52.086;5.122;2023-03-22T17:29:28;13.39;80.97
78212;SHT31;67490;52.086;5.122;2023-03-22T17:32:14;13.26;81.26
78212;SHT31;67490;52.086;5.122;2023-03-22T17:34:59;13.34;81.34
78212;SHT31;67490;52.086;5.122;2023-03-22T17:37:44;13.29;82.05
78212;SHT31;67490;52.086;5.122;2023-03-22T17:40:29;13.35;81.73
78212;SHT31;67490;52.086;5.122;2023-03-22T17:43:16;13.50;80.93
78212;SHT31;67490;52.086;5.122;2023-03-22T17:46:00;13.49;80.95